GOTT

Tambacounda Airport

Tambacounda, Senegal
METAR GOTT 160000Z 36006KT CAVOK 26/04 Q1017
Observed Flight Rules
Dec-16 @ 00:00 UTC (3 hours ago) Visual Flight Rules
Wind Visibility Clouds
360° at 6 knots 10,000+ meters
  • Clear skies
Temperatures Readings
Current 26°C / 79°F
Dewpoint 4°C / 39°F
Humidity 24%
Altimeter 30.03" Hg
Pressure 1017 hPa
Elevation 50
METAR GOTT 160000Z 36006KT CAVOK 26/04 Q1017
Observed Flight Rules
Dec-16 @ 00:00 UTC
(3 hours ago)
VFR
Wind Visibility
360° at 6 knots 10,000+ meters
Clouds
  • Clear skies
Temperature Dewpoint
26°C / 79°F 4°C / 39°F
Humidity Altimeter Pressure
24% 30.03" Hg 1017 hPa